Time;durP1;ratioP1;P1;durP2;ratioP2;P2;SDS_P1;SDS_P2;PMS_P1;PMS_P2;Temp;Humidity;BMP_temperature;BMP_pressure;BME280_temperature;BME280_humidity;BME280_pressure;Samples;Min_cycle;Max_cycle;Signal;HPM_P1;HPM_P2
2022/09/28 00:00:06;;;;;;;1.15;1.05;;;;;;;;;;5040139;28;20108;-70
2022/09/28 00:02:33;;;;;;;1.45;0.80;;;;;;;;;;5038124;28;20047;-70
2022/09/28 00:04:59;;;;;;;1.25;1.00;;;;;;;;;;5037997;28;20490;-70
2022/09/28 00:07:25;;;;;;;4.85;0.63;;;;;;;;;;5048177;28;20029;-70
2022/09/28 00:09:51;;;;;;;2.00;1.23;;;;;;;;;;5041075;28;20026;-72
2022/09/28 00:12:17;;;;;;;1.23;0.90;;;;;;;;;;5036777;28;20476;-70
2022/09/28 00:14:44;;;;;;;3.63;0.80;;;;;;;;;;5036283;28;20026;-70
2022/09/28 00:17:11;;;;;;;1.90;1.02;;;;;;;;;;5047729;28;20104;-71
2022/09/28 00:19:38;;;;;;;1.38;1.13;;;;;;;;;;5042763;28;20364;-70
2022/09/28 00:22:04;;;;;;;1.00;0.75;;;;;;;;;;5036800;28;20546;-70
2022/09/28 00:24:30;;;;;;;1.42;1.08;;;;;;;;;;5027999;28;20033;-70
2022/09/28 00:27:00;;;;;;;1.33;0.68;;;;;;;;;;5048350;28;20497;-70
2022/09/28 00:29:26;;;;;;;0.73;0.70;;;;;;;;;;5043856;28;20099;-70
2022/09/28 00:31:56;;;;;;;0.68;0.57;;;;;;;;;;5036569;28;20025;-70
2022/09/28 00:34:22;;;;;;;1.38;0.75;;;;;;;;;;5033580;28;20017;-70
2022/09/28 00:36:48;;;;;;;0.65;0.60;;;;;;;;;;5048011;28;20021;-69
2022/09/28 00:39:15;;;;;;;3.60;0.77;;;;;;;;;;5044465;28;20027;-71
2022/09/28 00:41:42;;;;;;;0.70;0.60;;;;;;;;;;5036363;28;20022;-70
2022/09/28 00:44:26;;;;;;;0.50;0.40;;;;;;;;;;5033817;28;20080;-70
2022/09/28 00:46:54;;;;;;;1.42;0.80;;;;;;;;;;5007635;28;20020;-70
2022/09/28 00:49:22;;;;;;;0.60;0.50;;;;;;;;;;5044031;28;20033;-70
2022/09/28 00:51:48;;;;;;;1.45;0.60;;;;;;;;;;5036076;28;20021;-70
2022/09/28 00:54:15;;;;;;;0.77;0.57;;;;;;;;;;5015733;28;20025;-71
2022/09/28 00:56:43;;;;;;;1.30;0.60;;;;;;;;;;5046407;28;20052;-70
2022/09/28 00:59:09;;;;;;;0.90;0.60;;;;;;;;;;5044348;28;20104;-71
2022/09/28 01:01:36;;;;;;;0.50;0.50;;;;;;;;;;5036140;28;20016;-70
2022/09/28 01:04:03;;;;;;;2.47;0.50;;;;;;;;;;5033386;28;20487;-71
2022/09/28 01:06:32;;;;;;;2.35;0.90;;;;;;;;;;5044299;28;20135;-71
2022/09/28 01:08:59;;;;;;;2.20;0.60;;;;;;;;;;5044119;28;20159;-71
2022/09/28 01:11:26;;;;;;;1.33;0.90;;;;;;;;;;5020421;28;20028;-71
2022/09/28 01:13:54;;;;;;;1.50;0.80;;;;;;;;;;5033026;28;20036;-71
2022/09/28 01:16:29;;;;;;;1.05;0.75;;;;;;;;;;5026243;28;20036;-70
2022/09/28 01:18:58;;;;;;;0.75;0.75;;;;;;;;;;5025199;28;20017;-71
2022/09/28 01:21:24;;;;;;;1.33;0.70;;;;;;;;;;5038613;28;20098;-71
2022/09/28 01:24:09;;;;;;;1.13;0.90;;;;;;;;;;5030595;28;20022;-71
2022/09/28 01:26:46;;;;;;;0.70;0.70;;;;;;;;;;5044143;28;20025;-71
2022/09/28 01:29:16;;;;;;;0.90;0.60;;;;;;;;;;5025584;28;20064;-71
2022/09/28 01:31:45;;;;;;;0.98;0.70;;;;;;;;;;5035217;28;20079;-71
2022/09/28 01:34:17;;;;;;;1.88;0.60;;;;;;;;;;5015176;28;20030;-71
2022/09/28 01:36:45;;;;;;;1.42;0.60;;;;;;;;;;5045688;28;20090;-71
2022/09/28 01:39:31;;;;;;;3.00;0.85;;;;;;;;;;5044036;28;20029;-71
2022/09/28 01:42:00;;;;;;;0.90;0.75;;;;;;;;;;5009925;28;20029;-72
2022/09/28 01:44:28;;;;;;;1.00;0.80;;;;;;;;;;5033057;28;20395;-71
2022/09/28 01:46:59;;;;;;;1.73;0.70;;;;;;;;;;5044843;28;20422;-71
2022/09/28 01:49:30;;;;;;;0.77;0.60;;;;;;;;;;5024930;28;20148;-71
2022/09/28 01:51:58;;;;;;;1.80;0.80;;;;;;;;;;5035248;28;20053;-71
2022/09/28 01:54:27;;;;;;;1.48;0.77;;;;;;;;;;5032078;28;20167;-71
2022/09/28 01:56:55;;;;;;;3.47;1.00;;;;;;;;;;5022502;28;20082;-71
2022/09/28 01:59:24;;;;;;;0.65;0.65;;;;;;;;;;5042335;28;20406;-71
2022/09/28 02:02:03;;;;;;;5.05;1.00;;;;;;;;;;5017281;28;20022;-71
2022/09/28 02:04:33;;;;;;;0.75;0.75;;;;;;;;;;5032509;28;20018;-71
2022/09/28 02:07:20;;;;;;;2.65;0.82;;;;;;;;;;5046517;28;20448;-71
2022/09/28 02:09:52;;;;;;;0.75;0.75;;;;;;;;;;5039840;28;20391;-71
2022/09/28 02:12:20;;;;;;;1.67;0.95;;;;;;;;;;5035140;28;20176;-71
2022/09/28 02:14:48;;;;;;;1.90;0.95;;;;;;;;;;5017065;28;20028;-71
2022/09/28 02:17:15;;;;;;;0.68;0.65;;;;;;;;;;5027919;28;20032;-70
2022/09/28 02:19:42;;;;;;;0.90;0.90;;;;;;;;;;5040297;28;20357;-71
2022/09/28 02:22:14;;;;;;;1.20;1.08;;;;;;;;;;5035049;28;20546;-71
2022/09/28 02:24:53;;;;;;;1.40;0.80;;;;;;;;;;5027490;28;20029;-71
2022/09/28 02:27:31;;;;;;;2.13;1.00;;;;;;;;;;5045967;28;20100;-71
2022/09/28 02:30:00;;;;;;;1.38;0.90;;;;;;;;;;5056565;22;20121;-79
2022/09/28 02:32:43;;;;;;;;;;;;;;;;;;;;;
2022/09/28 02:35:15;;;;;;;1.25;0.63;;;;;;;;;;5024556;28;20021;-80
2022/09/28 02:37:44;;;;;;;0.88;0.80;;;;;;;;;;5040055;28;20022;-81
2022/09/28 02:40:16;;;;;;;2.40;1.00;;;;;;;;;;5046414;28;20018;-82
2022/09/28 02:42:52;;;;;;;3.08;1.00;;;;;;;;;;5063355;28;20006;-85
2022/09/28 02:45:51;;;;;;;0.95;0.73;;;;;;;;;;5039792;28;20018;-80
2022/09/28 02:48:37;;;;;;;0.85;0.77;;;;;;;;;;5025640;28;20029;-81
2022/09/28 02:51:05;;;;;;;0.88;0.80;;;;;;;;;;5027775;28;20029;-80
2022/09/28 02:53:53;;;;;;;0.95;0.90;;;;;;;;;;5016019;28;20061;-80
2022/09/28 02:56:31;;;;;;;1.63;1.23;;;;;;;;;;5045499;28;20139;-80
2022/09/28 02:59:06;;;;;;;1.25;0.88;;;;;;;;;;5022115;28;20571;-81
2022/09/28 03:02:04;;;;;;;1.17;0.90;;;;;;;;;;5025431;28;20388;-80
2022/09/28 03:04:36;;;;;;;1.00;0.80;;;;;;;;;;5037795;28;20021;-80
2022/09/28 03:07:35;;;;;;;5.28;3.60;;;;;;;;;;5024134;28;20033;-80
2022/09/28 03:10:05;;;;;;;2.28;1.73;;;;;;;;;;4982385;28;20494;-80
2022/09/28 03:12:34;;;;;;;1.50;1.40;;;;;;;;;;5024054;28;20377;-80
2022/09/28 03:15:10;;;;;;;3.88;1.73;;;;;;;;;;5042854;28;20475;-81
2022/09/28 03:17:42;;;;;;;2.45;1.58;;;;;;;;;;5032709;28;20029;-79
2022/09/28 03:20:12;;;;;;;2.03;1.17;;;;;;;;;;5015184;28;20021;-79
2022/09/28 03:22:47;;;;;;;1.40;1.30;;;;;;;;;;5019881;28;20028;-79
2022/09/28 03:25:30;;;;;;;;;;;;;;;;;;;;;
2022/09/28 03:27:59;;;;;;;2.88;1.23;;;;;;;;;;5022250;28;20331;-77
2022/09/28 03:30:34;;;;;;;3.13;1.38;;;;;;;;;;5021698;28;20029;-77
2022/09/28 03:33:03;;;;;;;5.35;2.03;;;;;;;;;;5032335;28;20115;-77
2022/09/28 03:35:29;;;;;;;1.98;1.50;;;;;;;;;;5042037;28;20021;-77
2022/09/28 03:37:58;;;;;;;2.38;2.17;;;;;;;;;;5046794;28;20360;-77
2022/09/28 03:40:24;;;;;;;3.42;1.77;;;;;;;;;;5034204;28;20025;-79
2022/09/28 03:42:53;;;;;;;3.55;1.98;;;;;;;;;;5035225;28;20478;-78
2022/09/28 03:45:19;;;;;;;3.10;1.60;;;;;;;;;;5023905;28;20040;-77
2022/09/28 03:47:45;;;;;;;1.77;1.30;;;;;;;;;;5029653;28;20017;-78
2022/09/28 03:50:12;;;;;;;4.07;1.50;;;;;;;;;;5040497;28;20383;-78
2022/09/28 03:52:38;;;;;;;2.85;2.00;;;;;;;;;;5037737;28;20052;-77
2022/09/28 03:55:04;;;;;;;2.33;1.60;;;;;;;;;;5006267;28;20051;-77
2022/09/28 03:57:30;;;;;;;1.67;1.40;;;;;;;;;;5048804;28;20057;-78
2022/09/28 03:59:56;;;;;;;4.40;1.45;;;;;;;;;;5039732;28;20057;-78
2022/09/28 04:02:22;;;;;;;1.80;1.15;;;;;;;;;;5037824;28;20560;-78
2022/09/28 04:04:50;;;;;;;1.88;1.30;;;;;;;;;;5037556;28;20021;-76
2022/09/28 04:07:16;;;;;;;4.15;1.98;;;;;;;;;;5030916;28;20545;-77
2022/09/28 04:09:42;;;;;;;2.40;1.27;;;;;;;;;;5024897;28;20066;-78
2022/09/28 04:12:08;;;;;;;1.38;1.00;;;;;;;;;;5019690;28;20120;-77
2022/09/28 04:14:34;;;;;;;1.75;1.48;;;;;;;;;;5018362;28;20077;-78
2022/09/28 04:17:00;;;;;;;0.73;0.73;;;;;;;;;;5031377;28;20025;-78
2022/09/28 04:19:39;;;;;;;;;;;;;;;;;;;;;
2022/09/28 04:22:08;;;;;;;2.20;1.30;;;;;;;;;;5014220;28;20030;-78
2022/09/28 04:24:42;;;;;;;2.90;1.10;;;;;;;;;;4993744;28;20568;-78
2022/09/28 04:29:58;;;;;;;3.65;1.52;;;;;;;;;;5014816;28;20054;-79
2022/09/28 04:32:40;;;;;;;2.22;1.30;;;;;;;;;;5001740;28;20068;-77
2022/09/28 04:35:28;;;;;;;1.25;1.15;;;;;;;;;;4989014;28;20214;-77
2022/09/28 04:38:00;;;;;;;3.30;1.63;;;;;;;;;;5002392;28;20095;-77
2022/09/28 04:40:28;;;;;;;;;;;;;;;;;;4976209;28;20041;-81
2022/09/28 04:42:59;;;;;;;3.22;1.60;;;;;;;;;;5000992;28;19909;-79
2022/09/28 04:45:25;;;;;;;2.38;1.52;;;;;;;;;;4995142;28;20018;-79
2022/09/28 04:47:57;;;;;;;1.63;1.45;;;;;;;;;;5021200;28;20033;-78
2022/09/28 04:50:44;;;;;;;1.98;1.33;;;;;;;;;;4998811;28;20091;-78
2022/09/28 04:53:20;;;;;;;3.72;1.30;;;;;;;;;;4995803;28;20029;-78
2022/09/28 04:55:54;;;;;;;1.80;1.40;;;;;;;;;;4998510;28;20042;-78
2022/09/28 04:58:23;;;;;;;4.07;1.83;;;;;;;;;;5024855;28;20029;-78
2022/09/28 05:00:53;;;;;;;1.50;1.40;;;;;;;;;;5009645;28;20370;-78
2022/09/28 05:03:45;;;;;;;2.67;1.53;;;;;;;;;;5001178;28;20022;-79
2022/09/28 05:06:13;;;;;;;;;;;;;;;;;;5030458;28;20108;-79
2022/09/28 05:08:41;;;;;;;1.50;1.33;;;;;;;;;;5032325;28;19932;-78
2022/09/28 05:11:33;;;;;;;2.78;1.35;;;;;;;;;;5000938;28;20039;-78
2022/09/28 05:14:05;;;;;;;1.33;1.10;;;;;;;;;;4994281;28;20073;-78
2022/09/28 05:16:37;;;;;;;2.05;1.50;;;;;;;;;;4995613;28;20033;-78
2022/09/28 05:19:03;;;;;;;;;;;;;;;;;;5008275;28;20026;-79
2022/09/28 05:21:39;;;;;;;4.85;2.08;;;;;;;;;;4997513;28;20294;-78
2022/09/28 05:24:54;;;;;;;4.10;2.05;;;;;;;;;;4996837;28;20030;-79
2022/09/28 05:30:41;;;;;;;6.45;3.20;;;;;;;;;;4988710;28;20061;-79
2022/09/28 05:39:14;;;;;;;4.40;3.50;;;;;;;;;;4924599;29;20030;-81
2022/09/28 05:45:02;;;;;;;7.22;3.25;;;;;;;;;;5008983;28;20041;-78
2022/09/28 05:47:31;;;;;;;5.30;3.00;;;;;;;;;;5007192;28;20022;-82
2022/09/28 05:50:00;;;;;;;4.38;2.65;;;;;;;;;;4998141;28;20455;-80
2022/09/28 05:52:48;;;;;;;3.75;2.85;;;;;;;;;;4999900;28;20041;-82
2022/09/28 06:01:30;;;;;;;6.53;3.55;;;;;;;;;;4935485;28;20041;-81
2022/09/28 06:03:56;;;;;;;8.88;4.22;;;;;;;;;;4987911;28;20161;-80
2022/09/28 06:06:22;;;;;;;5.85;3.67;;;;;;;;;;5005758;28;20329;-79
2022/09/28 06:08:48;;;;;;;5.65;3.80;;;;;;;;;;5008276;28;20071;-79
2022/09/28 06:11:14;;;;;;;5.05;3.65;;;;;;;;;;5022297;28;20032;-79
2022/09/28 06:13:40;;;;;;;7.57;4.53;;;;;;;;;;5024831;28;20021;-80
2022/09/28 06:16:07;;;;;;;8.43;5.63;;;;;;;;;;5025196;28;20079;-80
2022/09/28 06:18:33;;;;;;;10.30;6.50;;;;;;;;;;5037415;28;20101;-79
2022/09/28 06:20:59;;;;;;;11.05;6.97;;;;;;;;;;5025494;28;20034;-81
2022/09/28 06:23:25;;;;;;;12.70;7.53;;;;;;;;;;5011020;28;20017;-79
2022/09/28 06:25:51;;;;;;;13.18;8.45;;;;;;;;;;5028820;28;20404;-79
2022/09/28 06:28:17;;;;;;;11.80;6.60;;;;;;;;;;5030337;28;20022;-77
2022/09/28 06:30:46;;;;;;;12.85;7.53;;;;;;;;;;4998249;28;20474;-78
2022/09/28 06:33:16;;;;;;;11.57;7.53;;;;;;;;;;4992281;28;20125;-77
2022/09/28 06:35:42;;;;;;;12.88;7.85;;;;;;;;;;4994781;28;20021;-78
2022/09/28 06:38:08;;;;;;;10.18;7.10;;;;;;;;;;5008881;28;20018;-78
2022/09/28 06:40:34;;;;;;;11.98;7.13;;;;;;;;;;5006500;28;20022;-79
2022/09/28 06:43:01;;;;;;;9.35;6.88;;;;;;;;;;5016436;28;20105;-78
2022/09/28 06:45:28;;;;;;;12.10;6.90;;;;;;;;;;5019897;28;20494;-78
2022/09/28 06:47:58;;;;;;;10.02;7.00;;;;;;;;;;5024156;28;20032;-79
2022/09/28 06:50:25;;;;;;;9.35;6.65;;;;;;;;;;4998230;28;20018;-77
2022/09/28 06:52:52;;;;;;;9.77;6.93;;;;;;;;;;5019655;28;20377;-78
2022/09/28 06:55:18;;;;;;;10.55;8.32;;;;;;;;;;5002452;28;20017;-79
2022/09/28 06:57:44;;;;;;;10.98;8.35;;;;;;;;;;5009214;28;20034;-78
2022/09/28 07:00:10;;;;;;;11.18;8.35;;;;;;;;;;5005247;28;20031;-79
2022/09/28 07:02:36;;;;;;;12.90;8.93;;;;;;;;;;5022132;28;20030;-78
2022/09/28 07:05:03;;;;;;;12.10;8.73;;;;;;;;;;5008052;28;20048;-80
2022/09/28 07:07:30;;;;;;;14.18;9.95;;;;;;;;;;5030515;28;20028;-80
2022/09/28 07:09:59;;;;;;;12.55;9.63;;;;;;;;;;5009250;28;20034;-77
2022/09/28 07:12:25;;;;;;;15.32;10.30;;;;;;;;;;5023803;28;20099;-79
2022/09/28 07:14:56;;;;;;;14.50;10.05;;;;;;;;;;5008757;28;20391;-79
2022/09/28 07:17:23;;;;;;;13.38;10.30;;;;;;;;;;5006231;28;20447;-80
2022/09/28 07:19:52;;;;;;;14.00;10.25;;;;;;;;;;4997450;28;20118;-79
2022/09/28 07:22:19;;;;;;;14.68;9.60;;;;;;;;;;5006542;28;20044;-79
2022/09/28 07:24:45;;;;;;;13.25;9.55;;;;;;;;;;4999171;28;20023;-78
2022/09/28 07:27:11;;;;;;;14.45;9.75;;;;;;;;;;4999276;28;20299;-79
2022/09/28 07:29:37;;;;;;;10.20;8.02;;;;;;;;;;5011887;28;20362;-78
2022/09/28 07:32:03;;;;;;;10.18;8.00;;;;;;;;;;5000593;28;20061;-78
2022/09/28 07:34:29;;;;;;;11.02;8.77;;;;;;;;;;4995783;28;20026;-79
2022/09/28 07:36:57;;;;;;;11.20;8.73;;;;;;;;;;4995546;28;20507;-77
2022/09/28 07:39:23;;;;;;;14.77;8.43;;;;;;;;;;4997045;28;20026;-77
2022/09/28 07:41:49;;;;;;;11.50;8.32;;;;;;;;;;4984348;28;20030;-79
2022/09/28 07:44:17;;;;;;;12.27;8.32;;;;;;;;;;4998440;28;20006;-79
2022/09/28 07:46:43;;;;;;;14.30;7.95;;;;;;;;;;5016487;28;20038;-81
2022/09/28 07:49:10;;;;;;;17.42;8.55;;;;;;;;;;5014363;28;20030;-79
2022/09/28 07:51:36;;;;;;;9.40;7.80;;;;;;;;;;5004807;28;20519;-79
2022/09/28 07:54:03;;;;;;;11.80;7.75;;;;;;;;;;4979081;28;20032;-79
2022/09/28 07:56:29;;;;;;;8.70;6.20;;;;;;;;;;4994852;28;20492;-79
2022/09/28 07:58:55;;;;;;;7.18;6.35;;;;;;;;;;4987155;28;20033;-79
2022/09/28 08:01:21;;;;;;;8.07;6.13;;;;;;;;;;4997909;28;20469;-79
2022/09/28 08:03:47;;;;;;;11.15;6.82;;;;;;;;;;4995114;28;20014;-78
2022/09/28 08:06:15;;;;;;;8.95;7.28;;;;;;;;;;4994960;28;20104;-78
2022/09/28 08:08:45;;;;;;;8.45;6.55;;;;;;;;;;4994120;28;20373;-78
2022/09/28 08:11:12;;;;;;;10.18;6.95;;;;;;;;;;4993544;28;20532;-78
2022/09/28 08:13:38;;;;;;;11.30;7.85;;;;;;;;;;4994741;28;20049;-79
2022/09/28 08:16:06;;;;;;;11.95;7.70;;;;;;;;;;4977300;28;20051;-78
2022/09/28 08:18:33;;;;;;;9.50;8.10;;;;;;;;;;5006419;28;20018;-79
2022/09/28 08:23:44;;;;;;;13.43;8.55;;;;;;;;;;4996042;28;20029;-79
2022/09/28 08:26:13;;;;;;;10.50;7.70;;;;;;;;;;4994881;28;20105;-78
2022/09/28 08:28:39;;;;;;;9.73;8.18;;;;;;;;;;4996588;28;20026;-79
2022/09/28 08:31:06;;;;;;;9.75;6.95;;;;;;;;;;4999838;28;20030;-79
2022/09/28 08:33:32;;;;;;;10.07;6.28;;;;;;;;;;4995322;28;20168;-79
2022/09/28 08:35:58;;;;;;;4.93;4.47;;;;;;;;;;5008274;28;20586;-79
2022/09/28 08:38:25;;;;;;;6.43;5.18;;;;;;;;;;5006808;28;20014;-79
2022/09/28 08:40:51;;;;;;;8.57;4.95;;;;;;;;;;4994637;28;20033;-78
2022/09/28 08:43:23;;;;;;;4.50;4.10;;;;;;;;;;4994171;28;20022;-78
2022/09/28 08:45:50;;;;;;;5.13;2.83;;;;;;;;;;4996923;28;20034;-80
2022/09/28 08:51:14;;;;;;;7.07;3.60;;;;;;;;;;4999413;28;20172;-80
2022/09/28 08:53:58;;;;;;;4.38;3.97;;;;;;;;;;4995584;28;20030;-80
2022/09/28 08:56:29;;;;;;;3.70;3.15;;;;;;;;;;4995676;28;20019;-80
2022/09/28 08:59:01;;;;;;;4.28;3.45;;;;;;;;;;4999758;28;20026;-80
2022/09/28 09:01:38;;;;;;;4.50;3.25;;;;;;;;;;5000536;28;20029;-79
2022/09/28 09:04:05;;;;;;;4.30;3.55;;;;;;;;;;5003543;28;20037;-80
2022/09/28 09:06:50;;;;;;;4.60;3.90;;;;;;;;;;4996898;28;20465;-79
2022/09/28 09:09:26;;;;;;;4.45;4.05;;;;;;;;;;4981217;28;20041;-79
2022/09/28 09:11:56;;;;;;;4.20;3.25;;;;;;;;;;4995595;28;20048;-79
2022/09/28 09:14:40;;;;;;;2.95;2.72;;;;;;;;;;5002026;28;20061;-80
2022/09/28 09:17:09;;;;;;;2.95;2.75;;;;;;;;;;4985392;28;20042;-77
2022/09/28 09:20:04;;;;;;;5.00;3.35;;;;;;;;;;5011261;28;20061;-79
2022/09/28 09:22:41;;;;;;;3.15;2.90;;;;;;;;;;4966858;28;20121;-79
2022/09/28 09:25:19;;;;;;;3.17;2.97;;;;;;;;;;5000820;28;20022;-79
2022/09/28 09:27:52;;;;;;;3.03;2.83;;;;;;;;;;4984042;28;20403;-80
2022/09/28 09:30:21;;;;;;;3.92;2.35;;;;;;;;;;4992697;28;20034;-80
2022/09/28 09:33:06;;;;;;;5.05;2.30;;;;;;;;;;4979831;28;20034;-81
2022/09/28 09:35:36;;;;;;;2.67;2.30;;;;;;;;;;4978948;28;20018;-78
2022/09/28 09:38:21;;;;;;;2.72;2.15;;;;;;;;;;5010459;28;20030;-80
2022/09/28 09:40:58;;;;;;;3.38;2.67;;;;;;;;;;4989193;28;20026;-81
2022/09/28 09:43:46;;;;;;;5.93;2.00;;;;;;;;;;4977368;28;20022;-81
2022/09/28 09:46:31;;;;;;;2.13;1.92;;;;;;;;;;4995200;28;20030;-82
2022/09/28 09:49:03;;;;;;;2.75;2.20;;;;;;;;;;4977814;28;20518;-82
2022/09/28 09:51:41;;;;;;;2.70;1.80;;;;;;;;;;5000733;28;20023;-82
2022/09/28 09:54:13;;;;;;;2.15;1.73;;;;;;;;;;4993997;28;20031;-81
2022/09/28 09:56:59;;;;;;;4.28;2.28;;;;;;;;;;5032006;28;20026;-82
2022/09/28 09:59:39;;;;;;;3.03;1.98;;;;;;;;;;5013206;28;20030;-81
2022/09/28 10:02:18;;;;;;;4.22;2.25;;;;;;;;;;4992967;28;20049;-81
2022/09/28 10:04:47;;;;;;;3.38;2.53;;;;;;;;;;4992579;28;20068;-81
2022/09/28 10:07:48;;;;;;;4.10;2.42;;;;;;;;;;5002964;28;20030;-81
2022/09/28 10:12:54;;;;;;;7.53;3.22;;;;;;;;;;5102211;22;20515;-81
2022/09/28 10:15:50;;;;;;;4.70;3.45;;;;;;;;;;5020410;28;20503;-81
2022/09/28 10:18:32;;;;;;;4.47;3.00;;;;;;;;;;5036205;28;20037;-81
2022/09/28 10:21:36;;;;;;;4.97;3.50;;;;;;;;;;4995195;28;20102;-80
2022/09/28 10:24:34;;;;;;;4.78;2.92;;;;;;;;;;4946964;29;20035;-82
2022/09/28 10:27:05;;;;;;;6.38;3.78;;;;;;;;;;5013909;23;20049;-72
2022/09/28 10:29:37;;;;;;;4.22;3.00;;;;;;;;;;5020294;28;20025;-74
2022/09/28 10:32:16;;;;;;;5.63;3.17;;;;;;;;;;5011322;28;20436;-74
2022/09/28 10:34:42;;;;;;;6.35;3.45;;;;;;;;;;5012939;28;20025;-75
2022/09/28 10:37:10;;;;;;;6.10;4.47;;;;;;;;;;4998880;28;20039;-74
2022/09/28 10:39:47;;;;;;;8.15;4.78;;;;;;;;;;4995887;28;20101;-75
2022/09/28 10:42:17;;;;;;;7.30;5.13;;;;;;;;;;4995456;28;20154;-75
2022/09/28 10:44:54;;;;;;;6.72;4.75;;;;;;;;;;4995329;28;20080;-75
2022/09/28 10:47:22;;;;;;;5.10;4.57;;;;;;;;;;4994814;28;20389;-75
2022/09/28 10:49:49;;;;;;;6.32;4.05;;;;;;;;;;4995342;28;20076;-75
2022/09/28 10:52:31;;;;;;;3.80;3.35;;;;;;;;;;4995447;28;20114;-75
2022/09/28 10:54:57;;;;;;;8.60;4.60;;;;;;;;;;4995256;28;20101;-75
2022/09/28 10:57:29;;;;;;;6.07;5.40;;;;;;;;;;4994618;28;20038;-75
2022/09/28 10:59:55;;;;;;;9.77;4.50;;;;;;;;;;4999944;28;20018;-75
2022/09/28 11:02:24;;;;;;;8.45;4.45;;;;;;;;;;4986367;28;20032;-75
2022/09/28 11:04:52;;;;;;;6.53;5.22;;;;;;;;;;4995307;28;20017;-75
2022/09/28 11:07:20;;;;;;;6.25;5.40;;;;;;;;;;4994120;28;20065;-75
2022/09/28 11:09:48;;;;;;;5.95;4.95;;;;;;;;;;4994865;28;20563;-75
2022/09/28 11:12:15;;;;;;;7.18;4.53;;;;;;;;;;4994925;28;20030;-75
2022/09/28 11:14:42;;;;;;;4.28;3.40;;;;;;;;;;4994942;28;20105;-76
2022/09/28 11:17:27;;;;;;;4.97;3.88;;;;;;;;;;4994122;28;20384;-75
2022/09/28 11:19:54;;;;;;;6.15;4.20;;;;;;;;;;5008175;28;20400;-74
2022/09/28 11:22:21;;;;;;;7.72;4.63;;;;;;;;;;4994682;28;20480;-75
2022/09/28 11:24:48;;;;;;;13.75;5.40;;;;;;;;;;4994744;28;20018;-75
2022/09/28 11:27:22;;;;;;;5.80;5.22;;;;;;;;;;4994053;28;20034;-75
2022/09/28 11:29:54;;;;;;;8.75;7.72;;;;;;;;;;4998423;28;20450;-75
2022/09/28 11:32:21;;;;;;;17.35;11.18;;;;;;;;;;4985534;28;20117;-75
2022/09/28 11:34:48;;;;;;;20.67;14.40;;;;;;;;;;4998696;28;20022;-75
2022/09/28 11:37:14;;;;;;;10.57;7.60;;;;;;;;;;5003156;28;20054;-76
2022/09/28 11:39:45;;;;;;;7.38;6.65;;;;;;;;;;4976966;28;20058;-75
2022/09/28 11:42:22;;;;;;;9.10;6.18;;;;;;;;;;4976959;28;20074;-77
2022/09/28 11:44:48;;;;;;;6.55;5.32;;;;;;;;;;4994336;28;20029;-75
2022/09/28 11:47:18;;;;;;;5.38;4.13;;;;;;;;;;4999659;28;20030;-75
2022/09/28 11:49:47;;;;;;;5.63;5.00;;;;;;;;;;4992567;28;20037;-75
2022/09/28 11:52:18;;;;;;;4.30;3.00;;;;;;;;;;4992455;28;20416;-75
2022/09/28 11:54:49;;;;;;;4.45;2.40;;;;;;;;;;4998474;28;20247;-75
2022/09/28 11:57:17;;;;;;;4.72;3.17;;;;;;;;;;4975982;28;20027;-74
2022/09/28 11:59:55;;;;;;;4.88;3.33;;;;;;;;;;4995371;28;20472;-75
2022/09/28 12:02:31;;;;;;;3.28;2.95;;;;;;;;;;5001063;28;20030;-74
2022/09/28 12:05:03;;;;;;;2.17;1.52;;;;;;;;;;4997914;28;20030;-75
2022/09/28 12:07:42;;;;;;;1.75;0.80;;;;;;;;;;4999485;28;20026;-76
2022/09/28 12:10:11;;;;;;;1.92;0.75;;;;;;;;;;5000975;28;20025;-73
2022/09/28 12:12:46;;;;;;;2.55;0.65;;;;;;;;;;5000244;28;20100;-75
2022/09/28 12:15:12;;;;;;;1.38;0.43;;;;;;;;;;5001126;28;20117;-73
2022/09/28 12:17:41;;;;;;;0.77;0.65;;;;;;;;;;4999305;28;20105;-75
2022/09/28 12:20:16;;;;;;;2.05;0.70;;;;;;;;;;5006806;28;20033;-75
2022/09/28 12:22:49;;;;;;;1.52;0.80;;;;;;;;;;4976350;28;20081;-74
2022/09/28 12:25:18;;;;;;;3.45;1.00;;;;;;;;;;4993819;28;20030;-74
2022/09/28 12:27:47;;;;;;;0.60;0.60;;;;;;;;;;4975321;28;20038;-74
2022/09/28 12:30:21;;;;;;;1.27;0.85;;;;;;;;;;5001132;28;20080;-75
2022/09/28 12:32:58;;;;;;;1.63;1.10;;;;;;;;;;5005607;28;20052;-75
2022/09/28 12:35:24;;;;;;;3.67;0.80;;;;;;;;;;4993090;28;20030;-75
2022/09/28 12:37:50;;;;;;;2.63;1.73;;;;;;;;;;4992516;28;20038;-76
2022/09/28 12:40:16;;;;;;;1.00;0.82;;;;;;;;;;4993405;28;20170;-75
2022/09/28 12:42:51;;;;;;;3.75;1.00;;;;;;;;;;4993064;28;20093;-75
2022/09/28 12:45:26;;;;;;;2.10;0.80;;;;;;;;;;4992769;28;20022;-76
2022/09/28 12:47:55;;;;;;;1.85;0.70;;;;;;;;;;4974797;28;20034;-75
2022/09/28 12:50:31;;;;;;;2.13;0.80;;;;;;;;;;4979184;28;20026;-75
2022/09/28 12:53:18;;;;;;;0.95;0.47;;;;;;;;;;4992963;28;20022;-75
2022/09/28 12:55:55;;;;;;;0.68;0.60;;;;;;;;;;4992909;28;20030;-75
2022/09/28 12:58:39;;;;;;;1.23;0.75;;;;;;;;;;4991770;28;20015;-75
2022/09/28 13:01:14;;;;;;;2.05;0.50;;;;;;;;;;5007434;28;20030;-75
2022/09/28 13:03:59;;;;;;;0.45;0.45;;;;;;;;;;4993996;28;20024;-75
2022/09/28 13:06:28;;;;;;;2.35;0.77;;;;;;;;;;4993212;28;20023;-75
2022/09/28 13:09:30;;;;;;;0.63;0.50;;;;;;;;;;4991501;28;20096;-75
2022/09/28 13:12:18;;;;;;;0.82;0.50;;;;;;;;;;4958634;28;20039;-75
2022/09/28 13:14:59;;;;;;;0.95;0.70;;;;;;;;;;4990830;28;20034;-74
2022/09/28 13:17:25;;;;;;;1.48;0.80;;;;;;;;;;4991209;28;20556;-75
2022/09/28 13:20:10;;;;;;;1.08;0.50;;;;;;;;;;4991656;28;20030;-75
2022/09/28 13:22:56;;;;;;;1.67;0.85;;;;;;;;;;4992332;28;20178;-75
2022/09/28 13:25:24;;;;;;;0.63;0.38;;;;;;;;;;4985288;28;20463;-74
2022/09/28 13:28:04;;;;;;;2.17;0.57;;;;;;;;;;4973878;28;20076;-75
2022/09/28 13:30:32;;;;;;;0.40;0.40;;;;;;;;;;5001895;28;20033;-75
2022/09/28 13:32:59;;;;;;;0.73;0.65;;;;;;;;;;4995408;28;20030;-75
2022/09/28 13:35:25;;;;;;;0.30;0.30;;;;;;;;;;4974849;28;20049;-74
2022/09/28 13:38:10;;;;;;;0.40;0.20;;;;;;;;;;4991313;28;20156;-74
2022/09/28 13:40:58;;;;;;;1.45;0.30;;;;;;;;;;4992369;28;20045;-75
2022/09/28 13:43:29;;;;;;;1.17;0.52;;;;;;;;;;4998135;28;20018;-74
2022/09/28 13:45:58;;;;;;;0.30;0.30;;;;;;;;;;4998700;28;20031;-75
2022/09/28 13:48:37;;;;;;;0.73;0.30;;;;;;;;;;4976768;28;20037;-75
2022/09/28 13:51:16;;;;;;;0.38;0.30;;;;;;;;;;4991798;28;20037;-74
2022/09/28 13:54:06;;;;;;;0.55;0.47;;;;;;;;;;4992043;28;20499;-74
2022/09/28 13:56:49;;;;;;;0.52;0.52;;;;;;;;;;4974366;28;20026;-75
2022/09/28 13:59:29;;;;;;;0.95;0.60;;;;;;;;;;4991075;28;20377;-74
2022/09/28 14:02:13;;;;;;;0.82;0.60;;;;;;;;;;4999629;28;20369;-75
2022/09/28 14:04:52;;;;;;;0.32;0.30;;;;;;;;;;4994810;28;20030;-74
2022/09/28 14:07:22;;;;;;;1.25;0.90;;;;;;;;;;4990994;28;20038;-75
2022/09/28 14:10:07;;;;;;;1.25;0.60;;;;;;;;;;4991320;28;20026;-74
2022/09/28 14:12:33;;;;;;;0.60;0.40;;;;;;;;;;4992708;28;20445;-74
2022/09/28 14:14:59;;;;;;;2.45;0.60;;;;;;;;;;4991791;28;20066;-75
2022/09/28 14:17:30;;;;;;;1.17;0.60;;;;;;;;;;4991504;28;20416;-74
2022/09/28 14:20:16;;;;;;;0.82;0.70;;;;;;;;;;4991943;28;20481;-74
2022/09/28 14:23:01;;;;;;;1.98;1.15;;;;;;;;;;4991653;28;20494;-75
2022/09/28 14:25:30;;;;;;;2.13;1.05;;;;;;;;;;4991909;28;20019;-74
2022/09/28 14:28:00;;;;;;;2.38;1.13;;;;;;;;;;4991219;28;20038;-74
2022/09/28 14:30:32;;;;;;;0.60;0.60;;;;;;;;;;5001050;28;20506;-75
2022/09/28 14:32:59;;;;;;;1.58;1.48;;;;;;;;;;4977677;28;20158;-75
2022/09/28 14:35:33;;;;;;;4.30;1.35;;;;;;;;;;4974771;28;20085;-75
2022/09/28 14:41:08;;;;;;;1.48;1.38;;;;;;;;;;4993058;28;20085;-75
2022/09/28 14:43:43;;;;;;;2.30;1.48;;;;;;;;;;4992619;28;20038;-75
2022/09/28 14:46:18;;;;;;;2.45;1.48;;;;;;;;;;4991621;28;20236;-74
2022/09/28 14:49:02;;;;;;;1.70;1.55;;;;;;;;;;4992199;28;20050;-75
2022/09/28 14:51:28;;;;;;;1.45;1.00;;;;;;;;;;4991651;28;20630;-75
2022/09/28 14:54:03;;;;;;;1.17;0.93;;;;;;;;;;4991854;28;20033;-75
2022/09/28 14:56:31;;;;;;;1.73;0.88;;;;;;;;;;4993882;28;20030;-74
2022/09/28 14:58:57;;;;;;;1.33;1.00;;;;;;;;;;4998205;28;20034;-73
2022/09/28 15:01:24;;;;;;;1.52;0.93;;;;;;;;;;4973976;28;20050;-75
2022/09/28 15:03:52;;;;;;;1.38;0.90;;;;;;;;;;4991869;28;20358;-75
2022/09/28 15:06:22;;;;;;;1.33;0.82;;;;;;;;;;4991359;28;20500;-75
2022/09/28 15:08:48;;;;;;;1.50;0.90;;;;;;;;;;4991265;28;20488;-74
2022/09/28 15:11:24;;;;;;;2.67;0.90;;;;;;;;;;4991574;28;20440;-75
2022/09/28 15:13:54;;;;;;;1.20;1.02;;;;;;;;;;4991309;28;20042;-75
2022/09/28 15:16:22;;;;;;;2.22;1.92;;;;;;;;;;4990836;28;20033;-75
2022/09/28 15:18:51;;;;;;;2.85;1.35;;;;;;;;;;4989361;28;20027;-74
2022/09/28 15:21:18;;;;;;;1.35;1.25;;;;;;;;;;4990375;28;20034;-75
2022/09/28 15:23:44;;;;;;;1.35;1.25;;;;;;;;;;4993832;28;20026;-75
2022/09/28 15:26:21;;;;;;;1.67;1.55;;;;;;;;;;4992900;28;20058;-74
2022/09/28 15:28:47;;;;;;;1.08;1.00;;;;;;;;;;4993677;28;20452;-74
2022/09/28 15:31:21;;;;;;;1.98;1.25;;;;;;;;;;5007204;28;20484;-74
2022/09/28 15:36:34;;;;;;;2.47;1.60;;;;;;;;;;4997221;28;20036;-73
2022/09/28 15:39:02;;;;;;;1.70;1.40;;;;;;;;;;5002730;28;20093;-76
2022/09/28 15:41:28;;;;;;;1.52;1.42;;;;;;;;;;4993204;28;20022;-75
2022/09/28 15:44:05;;;;;;;2.88;1.50;;;;;;;;;;4994156;28;20548;-74
2022/09/28 15:46:33;;;;;;;1.67;1.50;;;;;;;;;;4994339;28;20135;-74
2022/09/28 15:49:01;;;;;;;1.92;1.48;;;;;;;;;;4994300;28;20030;-74